createdAt,value
2018-06-30T00:01:38.063Z,17.40
2018-06-30T00:04:06.850Z,17.40
2018-06-30T00:06:35.593Z,17.40
2018-06-30T00:11:35.422Z,17.30
2018-06-30T00:14:04.224Z,17.30
2018-06-30T00:16:32.980Z,17.30
2018-06-30T00:19:02.044Z,17.20
2018-06-30T00:21:30.778Z,17.20
2018-06-30T00:23:59.532Z,17.20
2018-06-30T00:29:32.424Z,17.10
2018-06-30T00:32:01.178Z,17.10
2018-06-30T00:34:30.073Z,17.10
2018-06-30T00:36:58.837Z,17.00
2018-06-30T00:41:56.082Z,17.10
2018-06-30T00:44:25.360Z,17.00
2018-06-30T00:46:54.153Z,17.10
2018-06-30T00:49:22.938Z,17.10
2018-06-30T00:51:52.086Z,17.10
2018-06-30T00:54:21.046Z,17.00
2018-06-30T00:56:49.837Z,17.00
2018-06-30T00:59:18.629Z,16.90
2018-06-30T01:01:47.446Z,16.90
2018-06-30T01:06:44.865Z,16.90
2018-06-30T01:09:13.713Z,16.90
2018-06-30T01:14:10.983Z,16.80
2018-06-30T01:24:06.378Z,16.70
2018-06-30T01:26:35.154Z,16.70
2018-06-30T01:29:03.942Z,16.60
2018-06-30T01:31:32.730Z,16.60
2018-06-30T01:34:01.538Z,16.60
2018-06-30T01:36:30.283Z,16.60
2018-06-30T01:38:59.053Z,16.60
2018-06-30T01:41:27.835Z,16.50
2018-06-30T01:43:56.619Z,16.50
2018-06-30T01:46:25.405Z,16.50
2018-06-30T01:48:54.212Z,16.40
2018-06-30T01:51:23.097Z,16.40
2018-06-30T01:53:51.889Z,16.40
2018-06-30T01:56:20.685Z,16.30
2018-06-30T01:58:49.461Z,16.30
2018-06-30T02:01:18.253Z,16.30
2018-06-30T02:03:47.030Z,16.30
2018-06-30T02:06:15.834Z,16.30
2018-06-30T02:08:45.182Z,16.30
2018-06-30T02:11:14.074Z,16.40
2018-06-30T02:13:42.971Z,16.30
2018-06-30T02:16:11.785Z,16.30
2018-06-30T02:18:40.581Z,16.30
2018-06-30T02:21:09.380Z,16.30
2018-06-30T02:23:38.233Z,16.30
2018-06-30T02:26:06.992Z,16.30
2018-06-30T02:28:37.092Z,16.30
2018-06-30T02:33:34.491Z,16.30
2018-06-30T02:36:03.470Z,16.30
2018-06-30T02:38:32.243Z,16.30
2018-06-30T02:41:01.022Z,16.20
2018-06-30T02:43:29.810Z,16.30
2018-06-30T02:45:58.617Z,16.30
2018-06-30T02:48:27.514Z,16.30
2018-06-30T02:53:24.762Z,16.30
2018-06-30T02:55:53.751Z,16.30
2018-06-30T02:58:22.521Z,16.20
2018-06-30T03:00:51.463Z,16.30
2018-06-30T03:10:45.661Z,16.20
2018-06-30T03:13:14.437Z,16.10
2018-06-30T03:15:43.230Z,16.20
2018-06-30T03:18:12.167Z,16.10
2018-06-30T03:20:40.941Z,16.10
2018-06-30T03:25:38.190Z,16.00
2018-06-30T03:28:06.962Z,16.10
2018-06-30T03:30:35.769Z,16.10
2018-06-30T03:33:04.762Z,16.10
2018-06-30T03:35:33.585Z,16.00
2018-06-30T03:38:02.349Z,16.00
2018-06-30T03:40:31.131Z,16.00
2018-06-30T03:43:00.046Z,16.00
2018-06-30T03:45:28.819Z,16.00
2018-06-30T03:47:57.806Z,16.00
2018-06-30T03:50:26.569Z,16.00
2018-06-30T03:52:55.594Z,16.00
2018-06-30T03:55:24.389Z,16.00
2018-06-30T04:05:18.642Z,15.90
2018-06-30T04:07:47.430Z,15.90
2018-06-30T04:10:16.213Z,15.90
2018-06-30T04:12:51.554Z,16.00
2018-06-30T04:15:20.339Z,16.00
2018-06-30T04:17:49.326Z,15.90
2018-06-30T04:20:18.152Z,16.00
2018-06-30T04:22:46.902Z,16.00
2018-06-30T04:27:44.165Z,16.00
2018-06-30T04:30:13.578Z,16.00
2018-06-30T04:37:39.600Z,16.00
2018-06-30T04:40:08.425Z,16.00
2018-06-30T04:42:37.384Z,16.00
2018-06-30T04:45:06.164Z,16.10
2018-06-30T04:47:35.010Z,16.10
2018-06-30T04:50:03.817Z,16.10
2018-06-30T04:52:32.612Z,16.10
2018-06-30T04:55:01.398Z,16.10
2018-06-30T04:57:30.237Z,16.10
2018-06-30T04:59:58.997Z,16.20
2018-06-30T05:02:27.937Z,16.30
2018-06-30T05:09:53.676Z,16.50
2018-06-30T05:12:22.486Z,16.60
2018-06-30T05:14:51.265Z,16.70
2018-06-30T05:19:48.526Z,16.90
2018-06-30T05:24:45.789Z,17.10
2018-06-30T05:27:14.558Z,17.20
2018-06-30T05:29:43.336Z,17.30
2018-06-30T05:32:12.150Z,17.40
2018-06-30T05:37:09.415Z,17.50
2018-06-30T05:39:38.295Z,17.50
2018-06-30T05:42:07.181Z,17.50
2018-06-30T05:44:36.046Z,17.40
2018-06-30T05:47:04.826Z,17.30
2018-06-30T05:49:33.612Z,17.30
2018-06-30T05:52:02.385Z,17.20
2018-06-30T05:54:31.158Z,17.20
2018-06-30T05:59:28.819Z,17.20
2018-06-30T06:04:25.969Z,17.20
2018-06-30T06:06:54.746Z,17.20
2018-06-30T06:09:23.526Z,17.30
2018-06-30T06:11:52.350Z,17.30
2018-06-30T06:14:21.109Z,17.50
2018-06-30T06:16:49.885Z,18.00
2018-06-30T06:19:18.647Z,17.80
2018-06-30T06:21:47.430Z,18.40
2018-06-30T06:24:16.470Z,18.30
2018-06-30T06:26:45.301Z,18.00
2018-06-30T06:29:14.065Z,17.80
2018-06-30T06:31:42.836Z,17.80
2018-06-30T06:34:11.610Z,18.00
2018-06-30T06:36:40.406Z,18.00
2018-06-30T06:39:10.278Z,18.10
2018-06-30T06:41:39.330Z,18.30
2018-06-30T06:44:08.256Z,18.40
2018-06-30T06:46:37.029Z,18.20
2018-06-30T06:49:05.879Z,18.20
2018-06-30T06:51:34.665Z,18.30
2018-06-30T06:54:03.602Z,18.50
2018-06-30T06:56:32.385Z,18.60
2018-06-30T06:59:01.201Z,18.30
2018-06-30T07:01:29.965Z,18.20
2018-06-30T07:03:58.741Z,18.30
2018-06-30T07:06:27.532Z,18.80
2018-06-30T07:08:56.388Z,18.80
2018-06-30T07:11:25.226Z,18.60
2018-06-30T07:13:54.020Z,18.50
2018-06-30T07:16:23.611Z,18.50
2018-06-30T07:18:52.470Z,18.60
2018-06-30T07:21:21.277Z,18.60
2018-06-30T07:23:50.089Z,18.60
2018-06-30T07:26:18.833Z,18.70
2018-06-30T07:28:47.665Z,18.90
2018-06-30T07:31:16.507Z,19.10
2018-06-30T07:33:45.285Z,19.20
2018-06-30T07:36:14.210Z,19.20
2018-06-30T07:38:42.993Z,19.40
2018-06-30T07:41:11.742Z,19.60
2018-06-30T07:46:09.066Z,19.80
2018-06-30T07:48:37.858Z,20.00
2018-06-30T07:51:06.646Z,20.00
2018-06-30T07:53:35.425Z,20.10
2018-06-30T07:56:04.406Z,20.20
2018-06-30T07:58:33.211Z,20.40
2018-06-30T08:01:02.057Z,20.50
2018-06-30T08:03:30.824Z,20.40
2018-06-30T08:05:59.582Z,20.50
2018-06-30T08:08:28.361Z,20.50
2018-06-30T08:10:57.105Z,20.50
2018-06-30T08:13:25.876Z,20.50
2018-06-30T08:15:57.837Z,20.60
2018-06-30T08:18:26.961Z,20.60
2018-06-30T08:20:55.713Z,20.60
2018-06-30T08:23:24.521Z,20.60
2018-06-30T08:25:53.271Z,20.60
2018-06-30T08:28:22.093Z,20.60
2018-06-30T08:30:50.824Z,20.60
2018-06-30T08:33:19.584Z,20.70
2018-06-30T08:35:48.340Z,20.80
2018-06-30T08:38:17.093Z,20.60
2018-06-30T08:40:45.860Z,20.50
2018-06-30T08:43:14.638Z,20.40
2018-06-30T08:45:43.401Z,20.30
2018-06-30T08:48:12.153Z,20.40
2018-06-30T08:50:40.897Z,20.50
2018-06-30T08:53:09.666Z,20.60
2018-06-30T08:55:38.478Z,20.70
2018-06-30T08:58:07.195Z,20.90
2018-06-30T09:00:35.951Z,21.00
2018-06-30T09:03:04.809Z,20.90
2018-06-30T09:05:33.920Z,20.90
2018-06-30T09:08:02.694Z,20.70
2018-06-30T09:10:31.448Z,20.70
2018-06-30T09:13:00.242Z,20.90
2018-06-30T09:15:29.029Z,20.90
2018-06-30T09:17:57.801Z,21.00
2018-06-30T09:20:26.602Z,21.10
2018-06-30T09:22:55.396Z,21.10
2018-06-30T09:25:24.694Z,21.00
2018-06-30T09:27:53.705Z,21.10
2018-06-30T09:30:22.466Z,21.50
2018-06-30T09:32:51.226Z,21.70
2018-06-30T09:35:19.988Z,22.00
2018-06-30T09:37:48.794Z,22.00
2018-06-30T09:40:17.530Z,21.90
2018-06-30T09:42:46.279Z,21.80
2018-06-30T09:45:15.140Z,21.70
2018-06-30T09:47:43.888Z,21.60
2018-06-30T09:50:12.650Z,21.60
2018-06-30T09:52:41.405Z,21.50
2018-06-30T09:55:10.182Z,21.60
2018-06-30T09:57:38.938Z,22.00
2018-06-30T10:00:08.409Z,22.30
2018-06-30T10:02:37.169Z,22.00
2018-06-30T10:05:05.946Z,22.00
2018-06-30T10:07:34.715Z,21.70
2018-06-30T10:10:03.562Z,21.50
2018-06-30T10:12:32.258Z,21.50
2018-06-30T10:15:01.006Z,21.70
2018-06-30T10:17:29.795Z,21.70
2018-06-30T10:19:58.529Z,21.80
2018-06-30T10:22:27.261Z,21.90
2018-06-30T10:24:56.030Z,21.90
2018-06-30T10:27:24.773Z,21.90
2018-06-30T10:29:53.565Z,22.20
2018-06-30T10:32:22.344Z,22.70
2018-06-30T10:34:51.100Z,23.20
2018-06-30T10:37:20.083Z,23.30
2018-06-30T10:39:48.833Z,23.10
2018-06-30T10:42:17.649Z,22.70
2018-06-30T10:44:46.359Z,22.80
2018-06-30T10:47:15.121Z,23.00
2018-06-30T10:49:43.889Z,23.40
2018-06-30T10:52:12.681Z,23.10
2018-06-30T10:54:41.441Z,22.90
2018-06-30T10:57:10.202Z,22.60
2018-06-30T10:59:38.993Z,22.60
2018-06-30T11:02:07.753Z,22.60
2018-06-30T11:04:36.517Z,23.10
2018-06-30T11:07:05.466Z,23.50
2018-06-30T11:09:34.253Z,23.30
2018-06-30T11:12:03.085Z,23.80
2018-06-30T11:14:31.862Z,24.00
2018-06-30T11:17:00.613Z,24.20
2018-06-30T11:19:29.381Z,23.90
2018-06-30T11:21:58.142Z,23.70
2018-06-30T11:24:26.914Z,24.40
2018-06-30T11:26:55.666Z,24.80
2018-06-30T11:29:25.228Z,24.80
2018-06-30T11:31:53.966Z,23.90
2018-06-30T11:34:22.765Z,23.80
2018-06-30T11:36:51.544Z,24.40
2018-06-30T11:39:20.301Z,24.60
2018-06-30T11:41:49.135Z,25.10
2018-06-30T11:44:17.822Z,25.50
2018-06-30T11:46:46.581Z,25.70
2018-06-30T11:49:15.352Z,25.70
2018-06-30T11:51:44.114Z,25.30
2018-06-30T11:54:12.872Z,25.50
2018-06-30T11:56:41.646Z,25.60
2018-06-30T11:59:10.390Z,26.00
2018-06-30T12:01:39.147Z,25.90
2018-06-30T12:04:07.897Z,26.10
2018-06-30T12:06:36.669Z,26.20
2018-06-30T12:09:07.842Z,26.20
2018-06-30T12:11:38.221Z,26.10
2018-06-30T12:14:07.549Z,26.20
2018-06-30T12:16:36.645Z,26.60
2018-06-30T12:19:05.503Z,26.30
2018-06-30T12:21:34.286Z,26.40
2018-06-30T12:24:03.071Z,26.10
2018-06-30T12:26:31.849Z,26.50
2018-06-30T12:29:00.632Z,26.60
2018-06-30T12:31:29.413Z,26.90
2018-06-30T12:33:58.227Z,27.10
2018-06-30T12:36:27.050Z,26.70
2018-06-30T12:38:55.811Z,26.80
2018-06-30T12:41:24.570Z,26.40
2018-06-30T12:43:53.341Z,26.50
2018-06-30T12:46:22.135Z,26.80
2018-06-30T12:48:50.894Z,27.00
2018-06-30T12:51:19.667Z,26.80
2018-06-30T12:53:48.412Z,26.50
2018-06-30T12:56:17.181Z,26.70
2018-06-30T12:58:45.944Z,26.90
2018-06-30T13:01:14.705Z,27.50
2018-06-30T13:03:43.493Z,27.20
2018-06-30T13:06:12.263Z,27.20
2018-06-30T13:08:40.992Z,27.50
2018-06-30T13:11:09.743Z,27.30
2018-06-30T13:13:38.490Z,26.80
2018-06-30T13:16:07.498Z,27.30
2018-06-30T13:18:36.589Z,26.80
2018-06-30T13:21:05.405Z,26.80
2018-06-30T13:23:34.204Z,27.70
2018-06-30T13:26:02.990Z,27.30
2018-06-30T13:28:31.746Z,27.50
2018-06-30T13:31:00.521Z,27.50
2018-06-30T13:33:29.292Z,28.10
2018-06-30T13:35:58.054Z,27.70
2018-06-30T13:38:26.852Z,28.30
2018-06-30T13:40:55.617Z,27.50
2018-06-30T13:43:24.375Z,26.80
2018-06-30T13:45:53.329Z,26.50
2018-06-30T13:48:22.186Z,27.20
2018-06-30T13:50:50.945Z,27.80
2018-06-30T13:53:19.762Z,27.50
2018-06-30T13:55:48.522Z,27.80
2018-06-30T13:58:17.317Z,27.30
2018-06-30T14:00:46.139Z,27.30
2018-06-30T14:03:14.861Z,27.30
2018-06-30T14:05:43.618Z,27.30
2018-06-30T14:08:12.445Z,27.60
2018-06-30T14:10:41.230Z,27.50
2018-06-30T14:13:10.006Z,27.50
2018-06-30T14:15:39.485Z,27.40
2018-06-30T14:18:08.251Z,28.10
2018-06-30T14:20:37.021Z,28.10
2018-06-30T14:23:05.917Z,28.00
2018-06-30T14:25:34.709Z,28.10
2018-06-30T14:28:03.513Z,27.60
2018-06-30T14:30:32.260Z,27.40
2018-06-30T14:33:01.025Z,27.20
2018-06-30T14:35:29.810Z,28.00
2018-06-30T14:37:58.592Z,28.30
2018-06-30T14:40:27.329Z,28.10
2018-06-30T14:42:56.106Z,28.40
2018-06-30T14:45:24.874Z,28.20
2018-06-30T14:47:54.102Z,28.40
2018-06-30T14:50:22.930Z,28.70
2018-06-30T14:52:51.706Z,28.60
2018-06-30T14:55:20.458Z,28.70
2018-06-30T14:57:49.355Z,27.80
2018-06-30T15:00:18.150Z,28.40
2018-06-30T15:02:46.941Z,27.80
2018-06-30T15:05:15.709Z,28.00
2018-06-30T15:07:44.614Z,28.40
2018-06-30T15:10:13.526Z,27.90
2018-06-30T15:12:42.526Z,27.90
2018-06-30T15:15:11.276Z,27.90
2018-06-30T15:17:40.217Z,28.00
2018-06-30T15:20:09.025Z,27.80
2018-06-30T15:22:38.237Z,28.30
2018-06-30T15:25:07.073Z,28.00
2018-06-30T15:27:35.893Z,27.50
2018-06-30T15:30:04.660Z,27.50
2018-06-30T15:32:33.471Z,27.90
2018-06-30T15:35:02.325Z,27.60
2018-06-30T15:37:31.108Z,27.90
2018-06-30T15:39:59.850Z,27.50
2018-06-30T15:42:28.621Z,28.00
2018-06-30T15:44:57.389Z,28.40
2018-06-30T15:47:26.220Z,28.10
2018-06-30T15:49:54.962Z,27.90
2018-06-30T15:52:23.741Z,28.20
2018-06-30T15:54:52.501Z,27.90
2018-06-30T15:57:21.269Z,28.10
2018-06-30T15:59:50.146Z,28.30
2018-06-30T16:02:19.046Z,28.80
2018-06-30T16:04:48.133Z,28.40
2018-06-30T16:07:17.092Z,28.50
2018-06-30T16:09:45.909Z,28.10
2018-06-30T16:12:14.614Z,28.10
2018-06-30T16:14:43.380Z,27.50
2018-06-30T16:17:12.169Z,28.20
2018-06-30T16:19:40.945Z,28.10
2018-06-30T16:22:09.730Z,28.80
2018-06-30T16:24:38.517Z,28.70
2018-06-30T16:27:07.281Z,29.10
2018-06-30T16:29:36.117Z,28.70
2018-06-30T16:32:04.869Z,29.10
2018-06-30T16:34:33.653Z,28.80
2018-06-30T16:37:02.408Z,29.00
2018-06-30T16:39:31.177Z,28.70
2018-06-30T16:41:59.957Z,28.70
2018-06-30T16:44:28.789Z,28.40
2018-06-30T16:46:57.545Z,28.60
2018-06-30T16:49:26.332Z,28.80
2018-06-30T16:51:55.094Z,28.90
2018-06-30T16:54:23.897Z,28.70
2018-06-30T16:56:52.672Z,28.50
2018-06-30T16:59:21.493Z,28.80
2018-06-30T17:01:50.250Z,28.80
2018-06-30T17:04:19.084Z,28.20
2018-06-30T17:06:47.844Z,28.60
2018-06-30T17:09:16.616Z,28.30
2018-06-30T17:11:45.478Z,27.60
2018-06-30T17:14:14.237Z,27.40
2018-06-30T17:16:42.997Z,27.70
2018-06-30T17:19:11.772Z,28.20
2018-06-30T17:21:40.533Z,28.00
2018-06-30T17:24:09.357Z,27.60
2018-06-30T17:26:38.140Z,28.20
2018-06-30T17:29:06.906Z,28.70
2018-06-30T17:31:35.686Z,28.10
2018-06-30T17:34:04.637Z,28.50
2018-06-30T17:36:33.413Z,28.70
2018-06-30T17:39:02.239Z,28.60
2018-06-30T17:41:31.006Z,28.40
2018-06-30T17:43:59.877Z,28.60
2018-06-30T17:46:28.633Z,28.50
2018-06-30T17:48:57.804Z,28.50
2018-06-30T17:51:26.625Z,28.40
2018-06-30T17:53:55.420Z,28.20
2018-06-30T17:56:24.197Z,27.60
2018-06-30T17:58:52.961Z,27.90
2018-06-30T18:01:21.729Z,27.80
2018-06-30T18:03:50.638Z,27.90
2018-06-30T18:06:19.388Z,28.20
2018-06-30T18:08:48.157Z,27.80
2018-06-30T18:11:16.952Z,27.30
2018-06-30T18:13:45.798Z,27.30
2018-06-30T18:16:14.643Z,27.40
2018-06-30T18:18:43.449Z,27.30
2018-06-30T18:21:12.214Z,26.80
2018-06-30T18:23:41.077Z,27.00
2018-06-30T18:26:09.842Z,27.20
2018-06-30T18:28:38.605Z,27.30
2018-06-30T18:31:07.510Z,27.30
2018-06-30T18:33:36.361Z,27.20
2018-06-30T18:36:05.214Z,27.20
2018-06-30T18:38:33.978Z,27.00
2018-06-30T18:41:02.741Z,27.10
2018-06-30T18:43:32.474Z,27.00
2018-06-30T18:46:01.511Z,26.90
2018-06-30T18:48:30.838Z,27.00
2018-06-30T18:50:59.864Z,27.20
2018-06-30T18:53:28.933Z,28.10
2018-06-30T18:55:57.832Z,28.80
2018-06-30T18:58:26.745Z,28.80
2018-06-30T19:00:55.872Z,27.90
2018-06-30T19:03:24.734Z,27.10
2018-06-30T19:05:53.564Z,26.20
2018-06-30T19:08:22.305Z,25.60
2018-06-30T19:10:51.201Z,25.20
2018-06-30T19:13:19.941Z,25.00
2018-06-30T19:15:48.750Z,24.80
2018-06-30T19:18:17.541Z,24.60
2018-06-30T19:20:46.293Z,24.70
2018-06-30T19:23:15.142Z,24.70
2018-06-30T19:25:43.897Z,24.40
2018-06-30T19:28:12.713Z,24.10
2018-06-30T19:30:41.498Z,23.90
2018-06-30T19:33:10.261Z,23.90
2018-06-30T19:35:39.026Z,23.80
2018-06-30T19:38:07.807Z,23.60
2018-06-30T19:40:36.566Z,23.40
2018-06-30T19:43:05.334Z,23.30
2018-06-30T19:45:34.101Z,23.10
2018-06-30T19:48:03.010Z,22.90
2018-06-30T19:50:31.777Z,22.80
2018-06-30T19:53:00.602Z,22.60
2018-06-30T19:55:29.294Z,22.50
2018-06-30T19:57:58.090Z,22.40
2018-06-30T20:00:26.916Z,22.20
2018-06-30T20:02:55.691Z,22.10
2018-06-30T20:05:24.429Z,22.00
2018-06-30T20:07:53.200Z,22.10
2018-06-30T20:10:22.413Z,22.10
2018-06-30T20:12:51.206Z,21.90
2018-06-30T20:15:19.971Z,21.80
2018-06-30T20:17:48.778Z,21.60
2018-06-30T20:20:17.530Z,21.60
2018-06-30T20:22:46.297Z,21.50
2018-06-30T20:25:15.049Z,21.40
2018-06-30T20:27:43.893Z,21.30
2018-06-30T20:30:12.702Z,21.40
2018-06-30T20:32:41.545Z,21.20
2018-06-30T20:35:10.417Z,21.00
2018-06-30T20:37:39.334Z,20.80
2018-06-30T20:40:08.086Z,20.70
2018-06-30T20:42:36.853Z,20.50
2018-06-30T20:45:05.838Z,20.50
2018-06-30T20:47:34.633Z,20.40
2018-06-30T20:50:03.374Z,20.30
2018-06-30T20:52:32.129Z,20.20
2018-06-30T20:57:57.653Z,20.00
2018-06-30T21:00:26.429Z,19.90
2018-06-30T21:02:55.216Z,19.80
2018-06-30T21:05:23.937Z,19.70
2018-06-30T21:07:52.864Z,19.70
2018-06-30T21:10:21.593Z,19.60
2018-06-30T21:12:50.352Z,19.50
2018-06-30T21:15:19.110Z,19.40
2018-06-30T21:17:47.843Z,19.30
2018-06-30T21:20:16.568Z,19.30
2018-06-30T21:22:45.305Z,19.20
2018-06-30T21:25:14.097Z,19.20
2018-06-30T21:27:42.852Z,19.10
2018-06-30T21:30:11.585Z,19.10
2018-06-30T21:32:40.342Z,19.00
2018-06-30T21:35:09.225Z,19.00
2018-06-30T21:37:37.987Z,18.90
2018-06-30T21:40:06.749Z,18.80
2018-06-30T21:42:35.529Z,18.70
2018-06-30T21:45:04.510Z,18.70
2018-06-30T21:47:33.302Z,18.70
2018-06-30T21:50:02.058Z,18.60
2018-06-30T21:52:30.814Z,18.60
2018-06-30T21:54:59.574Z,18.50
2018-06-30T21:57:28.353Z,18.50
2018-06-30T21:59:57.085Z,18.40
2018-06-30T22:02:25.896Z,18.40
2018-06-30T22:04:54.705Z,18.30
2018-06-30T22:07:23.456Z,18.30
2018-06-30T22:09:52.329Z,18.20
2018-06-30T22:12:21.086Z,18.30
2018-06-30T22:14:49.857Z,18.20
2018-06-30T22:17:18.606Z,18.20
2018-06-30T22:19:47.346Z,18.10
2018-06-30T22:22:16.133Z,18.10
2018-06-30T22:24:44.885Z,18.10
2018-06-30T22:27:13.605Z,18.00
2018-06-30T22:29:42.344Z,18.00
2018-06-30T22:32:11.082Z,18.00
2018-06-30T22:34:39.859Z,17.90
2018-06-30T22:37:08.589Z,17.90
2018-06-30T22:39:48.644Z,17.80
2018-06-30T22:42:17.397Z,17.80
2018-06-30T22:44:46.169Z,17.80
2018-06-30T22:47:14.944Z,17.80
2018-06-30T22:49:43.678Z,17.70
2018-06-30T22:52:12.432Z,17.70
2018-06-30T22:54:41.243Z,17.60
2018-06-30T22:57:09.981Z,17.60
2018-06-30T22:59:38.735Z,17.60
2018-06-30T23:02:07.496Z,17.50
2018-06-30T23:04:36.233Z,17.50
2018-06-30T23:07:05.124Z,17.50
2018-06-30T23:09:33.898Z,17.50
2018-06-30T23:12:02.631Z,17.50
2018-06-30T23:14:31.385Z,17.40
2018-06-30T23:17:00.108Z,17.40
2018-06-30T23:19:28.853Z,17.40
2018-06-30T23:21:57.609Z,17.30
2018-06-30T23:24:26.397Z,17.30
2018-06-30T23:26:55.129Z,17.30
2018-06-30T23:29:23.985Z,17.20
2018-06-30T23:31:53.002Z,17.20
2018-06-30T23:34:22.027Z,17.20
2018-06-30T23:36:50.790Z,17.10
2018-06-30T23:39:19.542Z,17.10
2018-06-30T23:41:48.299Z,17.10
2018-06-30T23:46:45.665Z,17.00
2018-06-30T23:51:43.137Z,16.90
2018-06-30T23:56:40.401Z,16.90
2018-06-30T23:59:09.152Z,16.80
